• Join FlightAware (Why Join?)
  • Login
  • US Flag 
05:27PM EDT


 

Airport Tracker/Info


-or-


 

Live Flight TrackerFlight Track Log ✈ ASA385 ✈ 08-May-2013 ✈ KSFO - KPDX

Flight Track Log - Related Links

Times and Time Zones

All times are in EDT time to prevent confusion due to time zone crossing. See the ASA385 flight status page for this flight to view local times or setup timezone preferences in your user account.

Time Position Orientation Groundspeed Altitude Reporting Facility
EDT Latitude Longitude Course Direction KTS MPH feet Rate Location/Type
10:06AM 37.6500 -122.3500 55° Northeast 174 200 1,800  Level Northern Cal TRACON
10:07AM 37.6750 -122.3050 55° Northeast 203 234 3,800 2,340 Climbing Oakland Center
10:08AM 37.7267 -122.2433 43° Northeast 251 289 6,400 3,000 Climbing Oakland Center
10:09AM 37.8014 -122.2606 350° North 269 310 9,900 3,000 Climbing Oakland Center
10:10AM 37.9031 -122.2889 348° North 309 356 12,600 2,820 Climbing Oakland Center
10:11AM 37.9933 -122.3169 346° North 337 388 15,700 2,880 Climbing Oakland Center
10:12AM 38.0919 -122.3242 357° North 360 414 18,500 2,760 Climbing Oakland Center
10:13AM 38.1931 -122.3308 357° North 366 421 21,400 2,520 Climbing Oakland Center
10:14AM 38.2986 -122.3375 357° North 378 435 23,700 2,160 Climbing Oakland Center
10:15AM 38.4100 -122.3453 357° North 398 458 25,800 1,980 Climbing Oakland Center
10:16AM 38.5247 -122.3517 358° North 412 474 27,800 1,860 Climbing Oakland Center
10:17AM 38.6431 -122.3606 357° North 425 489 29,600 1,740 Climbing Oakland Center
10:18AM 38.7769 -122.3697 357° North 432 497 31,400 1,860 Climbing Oakland Center
10:19AM 38.8989 -122.3772 357° North 436 502 33,500 1,800 Climbing Oakland Center
10:20AM 39.0189 -122.3850 357° North 432 497 35,100 1,320 Climbing Oakland Center
10:21AM 39.1406 -122.3947 356° North 435 501 36,200 1,260 Climbing Oakland Center
10:22AM 39.2625 -122.4033 357° North 436 502 37,700 1,380 Climbing Oakland Center
10:23AM 39.3831 -122.4094 358° North 432 497 39,100 840 Climbing Oakland Center
10:24AM 39.5239 -122.4203 357° North 431 496 39,500 420 Climbing Oakland Center
10:25AM 39.6481 -122.4286 357° North 442 509 40,000 240 Climbing Oakland Center
10:26AM 39.7706 -122.4361 357° North 441 507 40,000  Level Oakland Center
10:27AM 39.8936 -122.4461 356° North 441 507 40,000  Level Oakland Center
10:28AM 40.0167 -122.4544 357° North 439 505 40,000  Level Oakland Center
10:29AM 40.1433 -122.4644 357° North 443 510 40,000  Level Oakland Center
10:30AM 40.2689 -122.4700 358° North 440 506 40,000  Level Oakland Center
10:31AM 40.3914 -122.4786 357° North 436 502 40,000  Level Oakland Center
10:32AM 40.5125 -122.4869 357° North 434 499 40,000  Level Oakland Center
10:33AM 40.6339 -122.4933 358° North 436 502 40,000  Level Oakland Center
10:34AM 40.7539 -122.5017 357° North 431 496 40,000  Level Oakland Center
10:35AM 40.8728 -122.5086 357° North 426 490 40,000  Level Oakland Center
10:36AM 40.9919 -122.5161 357° North 427 491 40,000  Level Oakland Center
10:37AM 41.1122 -122.5286 356° North 432 497 40,000  Level Oakland Center
10:38AM 41.2325 -122.5375 357° North 433 498 40,000  Level Oakland Center
10:39AM 41.3581 -122.5447 358° North 434 499 40,000  Level Oakland Center
10:40AM 41.4550 -122.5511 357° North 435 501 40,000  Level Seattle Center
10:41AM 41.5764 -122.5611 356° North 436 502 40,000  Level Seattle Center
10:42AM 41.6978 -122.5697 357° North 435 501 40,000  Level Seattle Center
10:43AM 41.8200 -122.5775 357° North 437 503 40,000  Level Seattle Center
10:44AM 41.9439 -122.5858 357° North 441 507 40,000  Level Seattle Center
10:45AM 42.0928 -122.5967 357° North 442 509 40,000  Level Seattle Center
10:46AM 42.2153 -122.6083 356° North 440 506 40,000  Level Seattle Center
10:47AM 42.3400 -122.6161 357° North 449 517 40,000  Level Seattle Center
10:48AM 42.4658 -122.6244 357° North 450 518 40,000  Level Seattle Center
10:49AM 42.5906 -122.6342 357° North 448 516 40,000  Level Seattle Center
10:50AM 42.7147 -122.6433 357° North 447 514 40,000  Level Seattle Center
10:51AM 42.8381 -122.6519 357° North 443 510 40,000  Level Seattle Center
10:52AM 42.9628 -122.6608 357° North 447 514 40,000  Level Seattle Center
10:53AM 43.0867 -122.6694 357° North 448 516 40,000  Level Seattle Center
10:54AM 43.2103 -122.6794 357° North 446 513 40,000  Level Seattle Center
10:55AM 43.3342 -122.6881 357° North 446 513 40,000  Level Seattle Center
10:57AM 43.4553 -122.6978 357° North 440 506 40,000  Level Seattle Center
10:58AM 43.5767 -122.7075 357° North 439 505 40,000 -900 Level Seattle Center
10:59AM 43.6953 -122.7167 357° North 432 497 38,200 -2,460 Descending Seattle Center
11:00AM 43.8347 -122.7269 357° North 422 486 35,000 -3,000 Descending Seattle Center
11:01AM 43.9525 -122.7367 357° North 425 489 32,200 -2,460 Descending Seattle Center
11:02AM 44.0692 -122.7458 357° North 424 488 30,000 -2,220 Descending Seattle Center
11:03AM 44.1794 -122.7497 359° North 406 467 27,800 -2,160 Descending Seattle Center
11:04AM 44.2864 -122.7381 North 389 448 25,700 -2,100 Descending Seattle Center
11:05AM 44.3889 -122.7281 North 385 443 23,600 -2,040 Descending Seattle Center
11:06AM 44.4922 -122.7186 North 378 435 21,600 -1,980 Descending Seattle Center
11:07AM 44.5928 -122.7086 North 368 423 19,600 -2,100 Descending Seattle Center
11:07AM 44.6619 -122.7025 North 356 410 18,300 -2,100 Descending Seattle Center
11:08AM 44.7092 -122.6972 North 356 410 17,500 -2,040 Descending Seattle Center
11:09AM 44.8050 -122.6883 North 350 403 15,400 -2,100 Descending Seattle Center
11:10AM 44.8972 -122.6783 North 339 390 13,300 -2,040 Descending Seattle Center
11:11AM 44.9869 -122.6581 North 340 391 11,300 -1,440 Descending Seattle Center
11:12AM 45.0614 -122.6039 27° Northeast 311 358 10,400 -1,140 Descending Seattle Center
11:13AM 45.1325 -122.5558 25° Northeast 291 335 9,000 -1,380 Descending Seattle Center
11:14AM 45.2000 -122.5083 26° Northeast 277 319 7,600 -1,320 Descending Seattle Center
11:15AM 45.2669 -122.4628 26° Northeast 270 311 6,400 -1,260 Descending Seattle Center
11:16AM 45.3297 -122.4197 26° Northeast 256 295 5,100 -1,140 Descending Seattle Center
11:17AM 45.3878 -122.3792 26° Northeast 241 277 4,100 -960 Descending Seattle Center
11:18AM 45.4425 -122.3472 22° Northeast 218 251 3,200 -840 Descending Seattle Center
11:19AM 45.5025 -122.3644 349° North 195 224 2,500 -480 Descending Seattle Center
11:20AM 45.5328 -122.4347 302° West 167 192 2,200 -540 Descending Seattle Center
11:21AM 45.5525 -122.4883 298° West 151 174 1,400 -840 Descending Seattle Center
11:22AM 45.5689 -122.5294 300° West 161 185 700 -840 Descending Seattle Center